createdAt,value
2023-03-06T00:06:33.832Z,15.25
2023-03-06T00:13:53.330Z,16.48
2023-03-06T00:21:12.956Z,14.02
2023-03-06T00:28:32.722Z,17.20
2023-03-06T00:35:50.948Z,13.73
2023-03-06T00:43:10.638Z,16.67
2023-03-06T00:50:28.874Z,19.08
2023-03-06T00:57:47.116Z,15.80
2023-03-06T01:05:07.955Z,18.48
2023-03-06T01:12:26.281Z,14.98
2023-03-06T01:19:44.546Z,15.80
2023-03-06T01:27:07.066Z,14.38
2023-03-06T01:34:25.345Z,16.50
2023-03-06T01:41:43.517Z,15.80
2023-03-06T01:49:06.075Z,17.02
2023-03-06T01:56:25.183Z,12.40
2023-03-06T02:03:44.022Z,16.02
2023-03-06T02:11:14.341Z,18.15
2023-03-06T02:18:32.736Z,20.10
2023-03-06T02:25:53.603Z,15.13
2023-03-06T02:33:13.628Z,18.88
2023-03-06T02:40:31.876Z,18.15
2023-03-06T02:47:51.697Z,17.33
2023-03-06T02:55:10.628Z,21.52
2023-03-06T03:02:28.933Z,18.70
2023-03-06T03:09:48.769Z,14.95
2023-03-06T03:17:07.862Z,18.13
2023-03-06T03:24:26.558Z,19.02
2023-03-06T03:31:47.504Z,24.17
2023-03-06T03:39:06.324Z,20.20
2023-03-06T03:46:24.726Z,18.67
2023-03-06T03:53:46.303Z,30.50
2023-03-06T04:01:07.518Z,27.52
2023-03-06T04:08:27.444Z,30.65
2023-03-06T04:15:47.386Z,26.73
2023-03-06T04:23:05.762Z,27.15
2023-03-06T04:30:27.506Z,29.50
2023-03-06T04:37:47.563Z,41.78
2023-03-06T04:45:22.910Z,45.28
2023-03-06T04:52:41.757Z,43.92
2023-03-06T05:00:11.173Z,46.42
2023-03-06T05:07:29.724Z,37.72
2023-03-06T05:14:48.274Z,37.10
2023-03-06T05:22:08.063Z,36.63
2023-03-06T05:29:26.342Z,29.90
2023-03-06T05:36:44.885Z,32.05
2023-03-06T05:44:04.597Z,50.78
2023-03-06T05:51:26.797Z,40.50
2023-03-06T05:58:45.213Z,33.70
2023-03-06T06:06:06.964Z,33.15
2023-03-06T06:13:25.312Z,33.08
2023-03-06T06:20:43.437Z,20.25
2023-03-06T06:28:03.532Z,32.13
2023-03-06T06:35:21.876Z,26.83
2023-03-06T06:42:40.603Z,20.05
2023-03-06T06:50:03.211Z,19.48
2023-03-06T06:57:22.034Z,28.60
2023-03-06T07:04:52.304Z,19.23
2023-03-06T07:12:20.151Z,22.10
2023-03-06T07:19:39.323Z,29.58
2023-03-06T07:26:57.789Z,16.88
2023-03-06T07:34:17.475Z,30.15
2023-03-06T07:41:35.968Z,30.15
2023-03-06T07:48:54.380Z,25.75
2023-03-06T07:56:14.638Z,25.13
2023-03-06T08:03:33.164Z,22.33
2023-03-06T08:10:51.420Z,22.75
2023-03-06T08:18:11.160Z,33.05
2023-03-06T08:25:30.545Z,23.60
2023-03-06T08:32:48.821Z,19.60
2023-03-06T08:40:10.404Z,22.10
2023-03-06T08:47:28.617Z,24.95
2023-03-06T08:54:47.018Z,20.90
2023-03-06T09:02:07.983Z,19.92
2023-03-06T09:09:26.408Z,19.95
2023-03-06T09:16:44.569Z,15.20
2023-03-06T09:24:04.219Z,18.85
2023-03-06T09:31:22.535Z,19.55
2023-03-06T09:38:40.770Z,19.83
2023-03-06T09:46:00.815Z,19.35
2023-03-06T09:53:39.487Z,21.67
2023-03-06T10:01:02.895Z,16.70
2023-03-06T10:08:28.636Z,22.25
2023-03-06T10:15:47.716Z,18.17
2023-03-06T10:23:33.980Z,22.88
2023-03-06T10:30:56.758Z,19.23
2023-03-06T10:38:20.952Z,13.53
2023-03-06T10:45:50.410Z,16.33
2023-03-06T10:53:21.479Z,20.00
2023-03-06T11:00:39.810Z,17.00
2023-03-06T11:08:00.744Z,15.45
2023-03-06T11:15:22.441Z,17.33
2023-03-06T11:22:41.379Z,22.00
2023-03-06T11:30:01.786Z,18.00
2023-03-06T11:37:38.678Z,19.67
2023-03-06T11:45:10.203Z,18.67
2023-03-06T11:52:31.025Z,17.50
2023-03-06T12:00:11.458Z,14.00
2023-03-06T12:07:32.207Z,14.98
2023-03-06T12:15:00.837Z,14.88
2023-03-06T12:22:53.408Z,16.92
2023-03-06T12:30:33.537Z,22.15
2023-03-06T12:38:01.624Z,19.05
2023-03-06T12:45:31.580Z,23.05
2023-03-06T12:52:50.040Z,16.67
2023-03-06T13:00:17.268Z,18.50
2023-03-06T13:07:49.400Z,21.23
2023-03-06T13:15:32.347Z,27.55
2023-03-06T13:22:50.717Z,26.67
2023-03-06T13:30:27.220Z,25.65
2023-03-06T13:37:52.382Z,32.75
2023-03-06T13:45:16.195Z,29.05
2023-03-06T13:52:41.373Z,31.80
2023-03-06T14:00:27.082Z,26.83
2023-03-06T14:07:47.227Z,21.63
2023-03-06T14:15:12.531Z,19.52
2023-03-06T14:22:31.276Z,24.50
2023-03-06T14:29:50.796Z,24.75
2023-03-06T14:37:21.199Z,22.67
2023-03-06T14:44:39.323Z,28.88
2023-03-06T14:52:00.693Z,27.17
2023-03-06T14:59:22.478Z,28.63
2023-03-06T15:06:41.885Z,24.73
2023-03-06T15:14:06.025Z,21.35
2023-03-06T15:21:26.710Z,25.45
2023-03-06T15:28:45.003Z,24.88
2023-03-06T15:36:06.414Z,28.88
2023-03-06T15:43:24.767Z,25.67
2023-03-06T15:50:43.011Z,29.60
2023-03-06T15:58:03.322Z,87.80
2023-03-06T16:05:23.009Z,35.25
2023-03-06T16:12:43.614Z,29.83
2023-03-06T16:20:04.072Z,30.77
2023-03-06T16:27:25.799Z,29.02
2023-03-06T16:34:43.934Z,30.63
2023-03-06T16:42:03.679Z,38.80
2023-03-06T16:49:23.700Z,34.30
2023-03-06T16:56:41.887Z,34.40
2023-03-06T17:04:01.621Z,38.13
2023-03-06T17:11:20.798Z,42.17
2023-03-06T17:18:38.933Z,42.72
2023-03-06T17:26:05.622Z,42.17
2023-03-06T17:33:24.047Z,41.70
2023-03-06T17:40:42.267Z,52.67
2023-03-06T17:48:01.889Z,68.05
2023-03-06T17:55:20.085Z,68.63
2023-03-06T18:02:38.327Z,52.20
2023-03-06T18:09:58.040Z,48.92
2023-03-06T18:17:16.359Z,38.70
2023-03-06T18:24:35.678Z,42.10
2023-03-06T18:31:56.939Z,50.88
2023-03-06T18:39:15.940Z,65.13
2023-03-06T18:46:35.862Z,44.55
2023-03-06T18:53:57.832Z,40.58
2023-03-06T19:01:16.638Z,43.88
2023-03-06T19:08:36.208Z,55.95
2023-03-06T19:15:57.239Z,62.30
2023-03-06T19:23:15.439Z,53.33
2023-03-06T19:30:33.795Z,69.43
2023-03-06T19:37:53.542Z,58.95
2023-03-06T19:45:12.659Z,51.05
2023-03-06T19:52:31.040Z,53.83
2023-03-06T19:59:52.397Z,54.22
2023-03-06T20:07:10.721Z,85.13
2023-03-06T20:14:28.995Z,61.65
2023-03-06T20:21:48.953Z,63.72
2023-03-06T20:29:07.480Z,56.28
2023-03-06T20:36:29.013Z,47.53
2023-03-06T20:43:48.940Z,50.15
2023-03-06T20:51:11.041Z,57.92
2023-03-06T20:58:31.628Z,63.22
2023-03-06T21:05:51.333Z,57.35
2023-03-06T21:13:09.748Z,47.58
2023-03-06T21:20:27.942Z,45.97
2023-03-06T21:27:47.874Z,50.95
2023-03-06T21:35:06.751Z,47.55
2023-03-06T21:42:25.041Z,50.28
2023-03-06T21:49:44.764Z,54.60
2023-03-06T21:57:03.186Z,52.83
2023-03-06T22:04:21.400Z,55.47
2023-03-06T22:11:42.951Z,57.85
2023-03-06T22:19:01.170Z,55.15
2023-03-06T22:26:19.394Z,59.70
2023-03-06T22:33:39.476Z,59.15
2023-03-06T22:40:58.078Z,67.10
2023-03-06T22:48:17.017Z,70.80
2023-03-06T22:55:37.342Z,64.13
2023-03-06T23:02:56.016Z,59.05
2023-03-06T23:10:14.178Z,68.35
2023-03-06T23:17:53.684Z,69.47
2023-03-06T23:25:30.285Z,68.35
2023-03-06T23:32:49.780Z,65.40
2023-03-06T23:40:11.318Z,63.95
2023-03-06T23:47:32.617Z,72.13
2023-03-06T23:54:50.948Z,69.53
